sensor_id;sensor_type;location;lat;lon;timestamp;P1;durP1;ratioP1;P2;durP2;ratioP2
49384;SDS011;36795;45.028;38.968;2023-03-14T00:01:07;27.52;;;11.80;;
49384;SDS011;36795;45.028;38.968;2023-03-14T00:03:53;28.58;;;12.77;;
49384;SDS011;36795;45.028;38.968;2023-03-14T00:06:39;26.85;;;11.73;;
49384;SDS011;36795;45.028;38.968;2023-03-14T00:09:25;27.60;;;11.65;;
49384;SDS011;36795;45.028;38.968;2023-03-14T00:12:14;28.08;;;12.23;;
49384;SDS011;36795;45.028;38.968;2023-03-14T00:15:01;27.23;;;11.63;;
49384;SDS011;36795;45.028;38.968;2023-03-14T00:17:48;29.67;;;12.23;;
49384;SDS011;36795;45.028;38.968;2023-03-14T00:20:34;27.15;;;11.63;;
49384;SDS011;36795;45.028;38.968;2023-03-14T00:23:20;31.33;;;12.02;;
49384;SDS011;36795;45.028;38.968;2023-03-14T00:26:11;28.33;;;11.15;;
49384;SDS011;36795;45.028;38.968;2023-03-14T00:28:57;27.65;;;11.68;;
49384;SDS011;36795;45.028;38.968;2023-03-14T00:31:44;26.30;;;11.25;;
49384;SDS011;36795;45.028;38.968;2023-03-14T00:34:30;26.95;;;11.70;;
49384;SDS011;36795;45.028;38.968;2023-03-14T00:37:18;27.35;;;11.02;;
49384;SDS011;36795;45.028;38.968;2023-03-14T00:40:05;25.12;;;10.25;;
49384;SDS011;36795;45.028;38.968;2023-03-14T00:42:52;28.40;;;11.20;;
49384;SDS011;36795;45.028;38.968;2023-03-14T00:45:38;24.48;;;10.82;;
49384;SDS011;36795;45.028;38.968;2023-03-14T00:48:24;27.20;;;11.45;;
49384;SDS011;36795;45.028;38.968;2023-03-14T00:51:10;26.12;;;11.10;;
49384;SDS011;36795;45.028;38.968;2023-03-14T00:54:01;23.98;;;10.10;;
49384;SDS011;36795;45.028;38.968;2023-03-14T00:56:47;28.27;;;11.85;;
49384;SDS011;36795;45.028;38.968;2023-03-14T00:59:34;27.17;;;11.95;;
49384;SDS011;36795;45.028;38.968;2023-03-14T01:02:20;27.83;;;11.35;;
49384;SDS011;36795;45.028;38.968;2023-03-14T01:05:07;30.75;;;12.48;;
49384;SDS011;36795;45.028;38.968;2023-03-14T01:07:55;26.15;;;11.05;;
49384;SDS011;36795;45.028;38.968;2023-03-14T01:10:41;28.90;;;12.60;;
49384;SDS011;36795;45.028;38.968;2023-03-14T01:13:27;27.10;;;10.70;;
49384;SDS011;36795;45.028;38.968;2023-03-14T01:16:14;29.10;;;12.07;;
49384;SDS011;36795;45.028;38.968;2023-03-14T01:18:59;29.37;;;11.20;;
49384;SDS011;36795;45.028;38.968;2023-03-14T01:21:46;28.08;;;11.20;;
49384;SDS011;36795;45.028;38.968;2023-03-14T01:24:32;34.75;;;10.88;;
49384;SDS011;36795;45.028;38.968;2023-03-14T01:27:18;27.45;;;11.75;;
49384;SDS011;36795;45.028;38.968;2023-03-14T01:30:05;27.77;;;10.70;;
49384;SDS011;36795;45.028;38.968;2023-03-14T01:32:53;27.45;;;11.07;;
49384;SDS011;36795;45.028;38.968;2023-03-14T01:35:39;27.37;;;11.02;;
49384;SDS011;36795;45.028;38.968;2023-03-14T01:38:26;27.00;;;10.52;;
49384;SDS011;36795;45.028;38.968;2023-03-14T01:41:13;27.20;;;10.30;;
49384;SDS011;36795;45.028;38.968;2023-03-14T01:44:01;27.33;;;10.48;;
49384;SDS011;36795;45.028;38.968;2023-03-14T01:46:48;26.87;;;10.63;;
49384;SDS011;36795;45.028;38.968;2023-03-14T01:49:34;28.10;;;11.63;;
49384;SDS011;36795;45.028;38.968;2023-03-14T01:52:25;27.73;;;11.10;;
49384;SDS011;36795;45.028;38.968;2023-03-14T01:55:13;26.50;;;10.73;;
49384;SDS011;36795;45.028;38.968;2023-03-14T01:58:00;28.10;;;11.18;;
49384;SDS011;36795;45.028;38.968;2023-03-14T02:00:49;26.42;;;11.20;;
49384;SDS011;36795;45.028;38.968;2023-03-14T02:03:38;27.77;;;10.40;;
49384;SDS011;36795;45.028;38.968;2023-03-14T02:06:29;27.92;;;12.15;;
49384;SDS011;36795;45.028;38.968;2023-03-14T02:09:18;27.42;;;10.55;;
49384;SDS011;36795;45.028;38.968;2023-03-14T02:12:05;26.42;;;10.15;;
49384;SDS011;36795;45.028;38.968;2023-03-14T02:14:53;27.33;;;10.82;;
49384;SDS011;36795;45.028;38.968;2023-03-14T02:17:43;26.27;;;10.07;;
49384;SDS011;36795;45.028;38.968;2023-03-14T02:20:38;26.25;;;11.15;;
49384;SDS011;36795;45.028;38.968;2023-03-14T02:23:46;26.58;;;10.30;;
49384;SDS011;36795;45.028;38.968;2023-03-14T02:26:38;28.25;;;9.75;;
49384;SDS011;36795;45.028;38.968;2023-03-14T02:29:26;26.77;;;9.75;;
49384;SDS011;36795;45.028;38.968;2023-03-14T02:32:13;25.02;;;9.95;;
49384;SDS011;36795;45.028;38.968;2023-03-14T02:35:03;25.50;;;8.75;;
49384;SDS011;36795;45.028;38.968;2023-03-14T02:37:54;23.38;;;8.35;;
49384;SDS011;36795;45.028;38.968;2023-03-14T02:40:42;24.15;;;8.75;;
49384;SDS011;36795;45.028;38.968;2023-03-14T02:43:28;23.08;;;8.45;;
49384;SDS011;36795;45.028;38.968;2023-03-14T02:46:19;22.30;;;7.87;;
49384;SDS011;36795;45.028;38.968;2023-03-14T02:49:12;23.30;;;7.60;;
49384;SDS011;36795;45.028;38.968;2023-03-14T02:51:59;22.25;;;8.27;;
49384;SDS011;36795;45.028;38.968;2023-03-14T02:54:45;22.95;;;7.53;;
49384;SDS011;36795;45.028;38.968;2023-03-14T02:57:31;22.02;;;7.35;;
49384;SDS011;36795;45.028;38.968;2023-03-14T03:00:17;22.58;;;7.15;;
49384;SDS011;36795;45.028;38.968;2023-03-14T03:03:04;19.40;;;6.62;;
49384;SDS011;36795;45.028;38.968;2023-03-14T03:05:51;23.60;;;6.30;;
49384;SDS011;36795;45.028;38.968;2023-03-14T03:08:37;21.30;;;5.82;;
49384;SDS011;36795;45.028;38.968;2023-03-14T03:11:24;19.05;;;6.07;;
49384;SDS011;36795;45.028;38.968;2023-03-14T03:14:10;23.75;;;5.90;;
49384;SDS011;36795;45.028;38.968;2023-03-14T03:16:56;20.90;;;6.55;;
49384;SDS011;36795;45.028;38.968;2023-03-14T03:19:43;19.70;;;5.70;;
49384;SDS011;36795;45.028;38.968;2023-03-14T03:22:29;18.90;;;5.18;;
49384;SDS011;36795;45.028;38.968;2023-03-14T03:25:16;17.50;;;4.70;;
49384;SDS011;36795;45.028;38.968;2023-03-14T03:28:03;15.48;;;5.22;;
49384;SDS011;36795;45.028;38.968;2023-03-14T03:30:53;18.60;;;5.15;;
49384;SDS011;36795;45.028;38.968;2023-03-14T03:33:40;19.30;;;4.53;;
49384;SDS011;36795;45.028;38.968;2023-03-14T03:36:27;18.05;;;4.78;;
49384;SDS011;36795;45.028;38.968;2023-03-14T03:39:13;17.00;;;5.07;;
49384;SDS011;36795;45.028;38.968;2023-03-14T03:41:59;20.95;;;5.57;;
49384;SDS011;36795;45.028;38.968;2023-03-14T03:44:47;18.50;;;5.47;;
49384;SDS011;36795;45.028;38.968;2023-03-14T03:47:33;16.00;;;4.55;;
49384;SDS011;36795;45.028;38.968;2023-03-14T03:50:20;20.73;;;4.90;;
49384;SDS011;36795;45.028;38.968;2023-03-14T03:53:07;17.37;;;5.00;;
49384;SDS011;36795;45.028;38.968;2023-03-14T03:55:53;25.80;;;6.37;;
49384;SDS011;36795;45.028;38.968;2023-03-14T03:58:40;17.73;;;5.12;;
49384;SDS011;36795;45.028;38.968;2023-03-14T04:01:26;19.10;;;3.97;;
49384;SDS011;36795;45.028;38.968;2023-03-14T04:04:13;18.27;;;4.30;;
49384;SDS011;36795;45.028;38.968;2023-03-14T04:06:59;18.83;;;5.28;;
49384;SDS011;36795;45.028;38.968;2023-03-14T04:09:46;19.87;;;5.35;;
49384;SDS011;36795;45.028;38.968;2023-03-14T04:12:35;18.60;;;4.50;;
49384;SDS011;36795;45.028;38.968;2023-03-14T04:15:22;15.70;;;4.50;;
49384;SDS011;36795;45.028;38.968;2023-03-14T04:18:08;17.45;;;4.70;;
49384;SDS011;36795;45.028;38.968;2023-03-14T04:20:56;15.50;;;3.85;;
49384;SDS011;36795;45.028;38.968;2023-03-14T04:23:43;18.23;;;4.50;;
49384;SDS011;36795;45.028;38.968;2023-03-14T04:26:30;16.17;;;4.12;;
49384;SDS011;36795;45.028;38.968;2023-03-14T04:29:16;15.25;;;4.22;;
49384;SDS011;36795;45.028;38.968;2023-03-14T04:32:04;18.37;;;4.45;;
49384;SDS011;36795;45.028;38.968;2023-03-14T04:34:50;19.73;;;4.47;;
49384;SDS011;36795;45.028;38.968;2023-03-14T04:37:36;21.02;;;4.72;;
49384;SDS011;36795;45.028;38.968;2023-03-14T04:40:24;19.05;;;4.65;;
49384;SDS011;36795;45.028;38.968;2023-03-14T04:43:11;19.65;;;4.43;;
49384;SDS011;36795;45.028;38.968;2023-03-14T04:45:58;19.30;;;5.28;;
49384;SDS011;36795;45.028;38.968;2023-03-14T04:48:44;22.65;;;4.85;;
49384;SDS011;36795;45.028;38.968;2023-03-14T04:51:35;21.92;;;6.35;;
49384;SDS011;36795;45.028;38.968;2023-03-14T04:54:22;17.30;;;4.82;;
49384;SDS011;36795;45.028;38.968;2023-03-14T04:57:08;18.17;;;5.15;;
49384;SDS011;36795;45.028;38.968;2023-03-14T04:59:55;21.62;;;4.80;;
49384;SDS011;36795;45.028;38.968;2023-03-14T05:02:41;17.77;;;4.93;;
49384;SDS011;36795;45.028;38.968;2023-03-14T05:05:28;17.45;;;5.03;;
49384;SDS011;36795;45.028;38.968;2023-03-14T05:08:15;25.23;;;5.68;;
49384;SDS011;36795;45.028;38.968;2023-03-14T05:11:02;18.98;;;4.97;;
49384;SDS011;36795;45.028;38.968;2023-03-14T05:13:48;21.15;;;5.30;;
49384;SDS011;36795;45.028;38.968;2023-03-14T05:16:35;20.48;;;5.15;;
49384;SDS011;36795;45.028;38.968;2023-03-14T05:19:21;19.98;;;5.70;;
49384;SDS011;36795;45.028;38.968;2023-03-14T05:22:10;18.42;;;5.57;;
49384;SDS011;36795;45.028;38.968;2023-03-14T05:24:57;22.25;;;5.85;;
49384;SDS011;36795;45.028;38.968;2023-03-14T05:27:44;22.08;;;6.68;;
49384;SDS011;36795;45.028;38.968;2023-03-14T05:30:30;19.92;;;6.05;;
49384;SDS011;36795;45.028;38.968;2023-03-14T05:33:18;17.80;;;4.75;;
49384;SDS011;36795;45.028;38.968;2023-03-14T05:36:06;22.90;;;5.62;;
49384;SDS011;36795;45.028;38.968;2023-03-14T05:38:53;17.15;;;5.32;;
49384;SDS011;36795;45.028;38.968;2023-03-14T05:41:40;22.75;;;6.05;;
49384;SDS011;36795;45.028;38.968;2023-03-14T05:44:27;20.75;;;4.85;;
49384;SDS011;36795;45.028;38.968;2023-03-14T05:47:13;20.50;;;5.45;;
49384;SDS011;36795;45.028;38.968;2023-03-14T05:50:04;20.75;;;5.40;;
49384;SDS011;36795;45.028;38.968;2023-03-14T05:52:50;21.10;;;6.18;;
49384;SDS011;36795;45.028;38.968;2023-03-14T05:55:37;22.23;;;5.70;;
49384;SDS011;36795;45.028;38.968;2023-03-14T05:58:23;17.52;;;4.93;;
49384;SDS011;36795;45.028;38.968;2023-03-14T06:01:10;19.75;;;5.62;;
49384;SDS011;36795;45.028;38.968;2023-03-14T06:03:57;17.48;;;5.32;;
49384;SDS011;36795;45.028;38.968;2023-03-14T06:06:43;16.45;;;4.80;;
49384;SDS011;36795;45.028;38.968;2023-03-14T06:09:30;18.67;;;5.57;;
49384;SDS011;36795;45.028;38.968;2023-03-14T06:12:17;22.62;;;5.40;;
49384;SDS011;36795;45.028;38.968;2023-03-14T06:15:04;19.50;;;5.37;;
49384;SDS011;36795;45.028;38.968;2023-03-14T06:17:53;17.98;;;5.20;;
49384;SDS011;36795;45.028;38.968;2023-03-14T06:20:40;20.62;;;5.47;;
49384;SDS011;36795;45.028;38.968;2023-03-14T06:23:27;19.70;;;5.40;;
49384;SDS011;36795;45.028;38.968;2023-03-14T06:26:19;15.93;;;4.68;;
49384;SDS011;36795;45.028;38.968;2023-03-14T06:29:07;17.50;;;4.07;;
49384;SDS011;36795;45.028;38.968;2023-03-14T06:31:54;22.67;;;4.93;;
49384;SDS011;36795;45.028;38.968;2023-03-14T06:34:40;16.30;;;4.53;;
49384;SDS011;36795;45.028;38.968;2023-03-14T06:37:30;17.67;;;5.25;;
49384;SDS011;36795;45.028;38.968;2023-03-14T06:40:17;19.58;;;4.97;;
49384;SDS011;36795;45.028;38.968;2023-03-14T06:43:04;18.83;;;5.05;;
49384;SDS011;36795;45.028;38.968;2023-03-14T06:45:50;17.17;;;4.37;;
49384;SDS011;36795;45.028;38.968;2023-03-14T06:48:37;19.60;;;5.40;;
49384;SDS011;36795;45.028;38.968;2023-03-14T06:51:24;19.10;;;5.00;;
49384;SDS011;36795;45.028;38.968;2023-03-14T06:54:12;17.50;;;4.65;;
49384;SDS011;36795;45.028;38.968;2023-03-14T06:56:59;18.05;;;4.78;;
49384;SDS011;36795;45.028;38.968;2023-03-14T06:59:47;20.12;;;4.60;;
49384;SDS011;36795;45.028;38.968;2023-03-14T07:02:33;17.27;;;4.35;;
49384;SDS011;36795;45.028;38.968;2023-03-14T07:05:19;15.02;;;4.20;;
49384;SDS011;36795;45.028;38.968;2023-03-14T07:08:06;18.90;;;4.50;;
49384;SDS011;36795;45.028;38.968;2023-03-14T07:10:55;14.63;;;4.55;;
49384;SDS011;36795;45.028;38.968;2023-03-14T07:13:42;17.95;;;4.78;;
49384;SDS011;36795;45.028;38.968;2023-03-14T07:16:29;20.45;;;5.62;;
49384;SDS011;36795;45.028;38.968;2023-03-14T07:19:17;24.90;;;5.25;;
49384;SDS011;36795;45.028;38.968;2023-03-14T07:22:04;18.30;;;5.00;;
49384;SDS011;36795;45.028;38.968;2023-03-14T07:24:50;18.33;;;4.68;;
49384;SDS011;36795;45.028;38.968;2023-03-14T07:27:37;24.67;;;4.97;;
49384;SDS011;36795;45.028;38.968;2023-03-14T07:30:23;19.77;;;4.93;;
49384;SDS011;36795;45.028;38.968;2023-03-14T07:33:10;20.30;;;5.28;;
49384;SDS011;36795;45.028;38.968;2023-03-14T07:35:56;18.45;;;4.47;;
49384;SDS011;36795;45.028;38.968;2023-03-14T07:38:43;18.20;;;4.65;;
49384;SDS011;36795;45.028;38.968;2023-03-14T07:41:30;17.67;;;4.53;;
49384;SDS011;36795;45.028;38.968;2023-03-14T07:44:22;19.08;;;5.00;;
49384;SDS011;36795;45.028;38.968;2023-03-14T07:47:08;20.12;;;5.45;;
49384;SDS011;36795;45.028;38.968;2023-03-14T07:49:55;21.98;;;5.30;;
49384;SDS011;36795;45.028;38.968;2023-03-14T07:52:41;17.87;;;4.87;;
49384;SDS011;36795;45.028;38.968;2023-03-14T07:55:27;19.85;;;5.50;;
49384;SDS011;36795;45.028;38.968;2023-03-14T07:58:14;23.08;;;6.55;;
49384;SDS011;36795;45.028;38.968;2023-03-14T08:01:00;17.52;;;4.97;;
49384;SDS011;36795;45.028;38.968;2023-03-14T08:03:47;20.40;;;4.85;;
49384;SDS011;36795;45.028;38.968;2023-03-14T08:06:34;17.80;;;5.25;;
49384;SDS011;36795;45.028;38.968;2023-03-14T08:09:21;17.65;;;4.55;;
49384;SDS011;36795;45.028;38.968;2023-03-14T08:12:07;16.85;;;4.85;;
49384;SDS011;36795;45.028;38.968;2023-03-14T08:14:54;15.68;;;4.60;;
49384;SDS011;36795;45.028;38.968;2023-03-14T08:17:40;15.70;;;4.28;;
49384;SDS011;36795;45.028;38.968;2023-03-14T08:20:27;18.85;;;4.53;;
49384;SDS011;36795;45.028;38.968;2023-03-14T08:23:13;22.27;;;6.00;;
49384;SDS011;36795;45.028;38.968;2023-03-14T08:26:00;28.17;;;11.75;;
49384;SDS011;36795;45.028;38.968;2023-03-14T08:28:46;21.02;;;4.85;;
49384;SDS011;36795;45.028;38.968;2023-03-14T08:31:33;18.33;;;4.65;;
49384;SDS011;36795;45.028;38.968;2023-03-14T08:34:19;17.92;;;4.57;;
49384;SDS011;36795;45.028;38.968;2023-03-14T08:37:05;20.65;;;5.22;;
49384;SDS011;36795;45.028;38.968;2023-03-14T08:39:51;16.58;;;5.05;;
49384;SDS011;36795;45.028;38.968;2023-03-14T08:42:38;19.08;;;5.57;;
49384;SDS011;36795;45.028;38.968;2023-03-14T08:45:24;19.42;;;5.35;;
49384;SDS011;36795;45.028;38.968;2023-03-14T08:48:10;18.00;;;4.82;;
49384;SDS011;36795;45.028;38.968;2023-03-14T08:50:57;17.15;;;5.00;;
49384;SDS011;36795;45.028;38.968;2023-03-14T08:53:50;21.65;;;7.78;;
49384;SDS011;36795;45.028;38.968;2023-03-14T08:56:35;17.92;;;4.93;;
49384;SDS011;36795;45.028;38.968;2023-03-14T08:59:23;19.98;;;5.15;;
49384;SDS011;36795;45.028;38.968;2023-03-14T09:02:10;21.12;;;5.15;;
49384;SDS011;36795;45.028;38.968;2023-03-14T09:04:57;16.92;;;4.68;;
49384;SDS011;36795;45.028;38.968;2023-03-14T09:07:43;16.23;;;4.45;;
49384;SDS011;36795;45.028;38.968;2023-03-14T09:10:30;16.33;;;4.82;;
49384;SDS011;36795;45.028;38.968;2023-03-14T09:13:16;19.90;;;5.32;;
49384;SDS011;36795;45.028;38.968;2023-03-14T09:16:03;18.05;;;5.55;;
49384;SDS011;36795;45.028;38.968;2023-03-14T09:18:49;18.27;;;6.10;;
49384;SDS011;36795;45.028;38.968;2023-03-14T09:21:39;18.67;;;5.72;;
49384;SDS011;36795;45.028;38.968;2023-03-14T09:24:25;16.98;;;5.40;;
49384;SDS011;36795;45.028;38.968;2023-03-14T09:27:12;16.42;;;4.57;;
49384;SDS011;36795;45.028;38.968;2023-03-14T09:29:58;18.77;;;5.55;;
49384;SDS011;36795;45.028;38.968;2023-03-14T09:32:45;18.95;;;5.20;;
49384;SDS011;36795;45.028;38.968;2023-03-14T09:35:33;16.67;;;5.05;;
49384;SDS011;36795;45.028;38.968;2023-03-14T09:38:20;19.50;;;5.85;;
49384;SDS011;36795;45.028;38.968;2023-03-14T09:41:18;20.25;;;5.65;;
49384;SDS011;36795;45.028;38.968;2023-03-14T09:46:52;17.95;;;4.25;;
49384;SDS011;36795;45.028;38.968;2023-03-14T09:49:39;24.42;;;5.75;;
49384;SDS011;36795;45.028;38.968;2023-03-14T09:52:27;17.60;;;4.70;;
49384;SDS011;36795;45.028;38.968;2023-03-14T09:55:16;20.17;;;5.47;;
49384;SDS011;36795;45.028;38.968;2023-03-14T09:58:03;18.52;;;5.72;;
49384;SDS011;36795;45.028;38.968;2023-03-14T10:00:55;20.40;;;4.87;;
49384;SDS011;36795;45.028;38.968;2023-03-14T10:03:42;17.58;;;4.50;;
49384;SDS011;36795;45.028;38.968;2023-03-14T10:06:30;21.08;;;5.30;;
49384;SDS011;36795;45.028;38.968;2023-03-14T10:09:22;22.75;;;6.22;;
49384;SDS011;36795;45.028;38.968;2023-03-14T10:12:11;20.05;;;5.85;;
49384;SDS011;36795;45.028;38.968;2023-03-14T10:14:58;17.15;;;4.95;;
49384;SDS011;36795;45.028;38.968;2023-03-14T10:17:48;15.05;;;4.22;;
49384;SDS011;36795;45.028;38.968;2023-03-14T10:20:36;21.50;;;4.85;;
49384;SDS011;36795;45.028;38.968;2023-03-14T10:23:24;27.80;;;7.40;;
49384;SDS011;36795;45.028;38.968;2023-03-14T10:26:14;16.95;;;5.55;;
49384;SDS011;36795;45.028;38.968;2023-03-14T10:29:02;17.60;;;4.60;;
49384;SDS011;36795;45.028;38.968;2023-03-14T10:34:39;15.73;;;4.78;;
49384;SDS011;36795;45.028;38.968;2023-03-14T10:37:26;17.00;;;4.82;;
49384;SDS011;36795;45.028;38.968;2023-03-14T10:40:12;18.50;;;4.97;;
49384;SDS011;36795;45.028;38.968;2023-03-14T10:42:59;17.70;;;5.00;;
49384;SDS011;36795;45.028;38.968;2023-03-14T10:45:54;14.98;;;4.12;;
49384;SDS011;36795;45.028;38.968;2023-03-14T10:48:45;15.27;;;4.40;;
49384;SDS011;36795;45.028;38.968;2023-03-14T10:51:35;17.55;;;4.65;;
49384;SDS011;36795;45.028;38.968;2023-03-14T10:54:22;17.20;;;4.55;;
49384;SDS011;36795;45.028;38.968;2023-03-14T10:57:10;16.50;;;4.47;;
49384;SDS011;36795;45.028;38.968;2023-03-14T11:00:02;16.77;;;5.37;;
49384;SDS011;36795;45.028;38.968;2023-03-14T11:08:33;17.08;;;4.70;;
49384;SDS011;36795;45.028;38.968;2023-03-14T11:11:22;20.33;;;5.65;;
49384;SDS011;36795;45.028;38.968;2023-03-14T11:14:18;20.90;;;5.45;;
49384;SDS011;36795;45.028;38.968;2023-03-14T11:20:22;17.75;;;5.47;;
49384;SDS011;36795;45.028;38.968;2023-03-14T11:28:46;18.87;;;5.82;;
49384;SDS011;36795;45.028;38.968;2023-03-14T11:31:33;18.58;;;5.60;;
49384;SDS011;36795;45.028;38.968;2023-03-14T11:34:28;21.45;;;6.25;;
49384;SDS011;36795;45.028;38.968;2023-03-14T11:37:17;21.23;;;6.70;;
49384;SDS011;36795;45.028;38.968;2023-03-14T11:40:14;22.87;;;6.40;;
49384;SDS011;36795;45.028;38.968;2023-03-14T11:43:11;22.35;;;6.22;;
49384;SDS011;36795;45.028;38.968;2023-03-14T11:46:01;22.45;;;5.43;;
49384;SDS011;36795;45.028;38.968;2023-03-14T11:49:03;21.77;;;6.18;;
49384;SDS011;36795;45.028;38.968;2023-03-14T11:51:56;19.95;;;5.50;;
49384;SDS011;36795;45.028;38.968;2023-03-14T11:54:48;17.62;;;5.82;;
49384;SDS011;36795;45.028;38.968;2023-03-14T11:57:37;23.27;;;6.55;;
49384;SDS011;36795;45.028;38.968;2023-03-14T12:00:24;22.73;;;6.43;;
49384;SDS011;36795;45.028;38.968;2023-03-14T12:03:21;23.02;;;6.53;;
49384;SDS011;36795;45.028;38.968;2023-03-14T12:09:16;20.35;;;6.22;;
49384;SDS011;36795;45.028;38.968;2023-03-14T12:12:03;26.17;;;6.62;;
49384;SDS011;36795;45.028;38.968;2023-03-14T12:15:01;18.08;;;5.78;;
49384;SDS011;36795;45.028;38.968;2023-03-14T12:17:55;19.00;;;5.25;;
49384;SDS011;36795;45.028;38.968;2023-03-14T12:20:57;21.83;;;5.90;;
49384;SDS011;36795;45.028;38.968;2023-03-14T12:26:44;27.62;;;7.07;;
49384;SDS011;36795;45.028;38.968;2023-03-14T12:29:32;22.62;;;7.18;;
49384;SDS011;36795;45.028;38.968;2023-03-14T12:32:24;23.92;;;7.18;;
49384;SDS011;36795;45.028;38.968;2023-03-14T12:41:29;23.65;;;6.90;;
49384;SDS011;36795;45.028;38.968;2023-03-14T12:50:07;20.70;;;5.25;;
49384;SDS011;36795;45.028;38.968;2023-03-14T12:58:54;20.52;;;5.28;;
49384;SDS011;36795;45.028;38.968;2023-03-14T13:01:54;19.62;;;5.20;;
49384;SDS011;36795;45.028;38.968;2023-03-14T13:04:45;14.73;;;4.57;;
49384;SDS011;36795;45.028;38.968;2023-03-14T13:10:28;14.75;;;4.35;;
49384;SDS011;36795;45.028;38.968;2023-03-14T13:13:24;16.50;;;4.80;;
49384;SDS011;36795;45.028;38.968;2023-03-14T13:16:14;18.45;;;5.25;;
49384;SDS011;36795;45.028;38.968;2023-03-14T13:19:44;23.42;;;4.95;;
49384;SDS011;36795;45.028;38.968;2023-03-14T13:22:20;19.17;;;5.68;;
49384;SDS011;36795;45.028;38.968;2023-03-14T13:25:09;21.58;;;6.18;;
49384;SDS011;36795;45.028;38.968;2023-03-14T13:27:55;23.98;;;6.97;;
49384;SDS011;36795;45.028;38.968;2023-03-14T13:30:45;19.12;;;6.22;;
49384;SDS011;36795;45.028;38.968;2023-03-14T13:33:32;20.60;;;5.43;;
49384;SDS011;36795;45.028;38.968;2023-03-14T13:36:21;18.65;;;5.82;;
49384;SDS011;36795;45.028;38.968;2023-03-14T13:39:13;20.33;;;6.35;;
49384;SDS011;36795;45.028;38.968;2023-03-14T13:42:03;23.30;;;7.75;;
49384;SDS011;36795;45.028;38.968;2023-03-14T13:44:49;26.48;;;5.65;;
49384;SDS011;36795;45.028;38.968;2023-03-14T13:47:37;24.30;;;6.60;;
49384;SDS011;36795;45.028;38.968;2023-03-14T13:50:24;22.23;;;5.97;;
49384;SDS011;36795;45.028;38.968;2023-03-14T13:53:11;19.27;;;5.57;;
49384;SDS011;36795;45.028;38.968;2023-03-14T13:56:00;22.05;;;6.50;;
49384;SDS011;36795;45.028;38.968;2023-03-14T13:58:47;18.65;;;5.57;;
49384;SDS011;36795;45.028;38.968;2023-03-14T14:01:34;25.58;;;8.32;;
49384;SDS011;36795;45.028;38.968;2023-03-14T14:04:23;20.42;;;5.57;;
49384;SDS011;36795;45.028;38.968;2023-03-14T14:07:15;64.57;;;32.90;;
49384;SDS011;36795;45.028;38.968;2023-03-14T14:10:03;23.23;;;7.87;;
49384;SDS011;36795;45.028;38.968;2023-03-14T14:12:55;26.35;;;7.30;;
49384;SDS011;36795;45.028;38.968;2023-03-14T14:15:44;18.00;;;5.60;;
49384;SDS011;36795;45.028;38.968;2023-03-14T14:18:30;19.85;;;5.53;;
49384;SDS011;36795;45.028;38.968;2023-03-14T14:21:18;26.65;;;8.75;;
49384;SDS011;36795;45.028;38.968;2023-03-14T14:24:04;20.77;;;6.12;;
49384;SDS011;36795;45.028;38.968;2023-03-14T14:27:36;20.12;;;5.50;;
49384;SDS011;36795;45.028;38.968;2023-03-14T14:30:06;24.87;;;6.37;;
49384;SDS011;36795;45.028;38.968;2023-03-14T14:33:20;19.48;;;5.03;;
49384;SDS011;36795;45.028;38.968;2023-03-14T14:36:18;23.15;;;6.30;;
49384;SDS011;36795;45.028;38.968;2023-03-14T14:39:09;25.45;;;5.87;;
49384;SDS011;36795;45.028;38.968;2023-03-14T14:41:57;24.55;;;6.32;;
49384;SDS011;36795;45.028;38.968;2023-03-14T14:44:43;22.75;;;6.15;;
49384;SDS011;36795;45.028;38.968;2023-03-14T14:47:30;18.95;;;5.43;;
49384;SDS011;36795;45.028;38.968;2023-03-14T14:50:38;21.92;;;5.37;;
49384;SDS011;36795;45.028;38.968;2023-03-14T14:53:27;22.15;;;5.70;;
49384;SDS011;36795;45.028;38.968;2023-03-14T14:56:19;23.15;;;6.22;;
49384;SDS011;36795;45.028;38.968;2023-03-14T14:59:17;20.62;;;5.55;;
49384;SDS011;36795;45.028;38.968;2023-03-14T15:02:04;19.80;;;5.93;;
49384;SDS011;36795;45.028;38.968;2023-03-14T15:04:50;24.02;;;5.87;;
49384;SDS011;36795;45.028;38.968;2023-03-14T15:07:37;22.02;;;5.82;;
49384;SDS011;36795;45.028;38.968;2023-03-14T15:10:23;22.80;;;5.97;;
49384;SDS011;36795;45.028;38.968;2023-03-14T15:13:10;26.87;;;7.10;;
49384;SDS011;36795;45.028;38.968;2023-03-14T15:15:56;20.60;;;5.35;;
49384;SDS011;36795;45.028;38.968;2023-03-14T15:18:43;20.83;;;5.93;;
49384;SDS011;36795;45.028;38.968;2023-03-14T15:21:29;18.95;;;4.80;;
49384;SDS011;36795;45.028;38.968;2023-03-14T15:24:15;19.75;;;5.47;;
49384;SDS011;36795;45.028;38.968;2023-03-14T15:27:02;19.10;;;5.03;;
49384;SDS011;36795;45.028;38.968;2023-03-14T15:29:48;25.17;;;6.35;;
49384;SDS011;36795;45.028;38.968;2023-03-14T15:32:34;18.12;;;5.32;;
49384;SDS011;36795;45.028;38.968;2023-03-14T15:35:21;25.85;;;5.95;;
49384;SDS011;36795;45.028;38.968;2023-03-14T15:38:12;21.00;;;4.45;;
49384;SDS011;36795;45.028;38.968;2023-03-14T15:40:59;26.08;;;6.35;;
49384;SDS011;36795;45.028;38.968;2023-03-14T15:43:45;22.05;;;7.95;;
49384;SDS011;36795;45.028;38.968;2023-03-14T15:46:32;19.45;;;5.75;;
49384;SDS011;36795;45.028;38.968;2023-03-14T15:49:18;26.58;;;8.50;;
49384;SDS011;36795;45.028;38.968;2023-03-14T15:52:05;29.87;;;7.68;;
49384;SDS011;36795;45.028;38.968;2023-03-14T15:54:55;24.00;;;7.45;;
49384;SDS011;36795;45.028;38.968;2023-03-14T15:57:43;21.27;;;6.57;;
49384;SDS011;36795;45.028;38.968;2023-03-14T16:00:29;20.50;;;5.97;;
49384;SDS011;36795;45.028;38.968;2023-03-14T16:03:15;23.87;;;6.47;;
49384;SDS011;36795;45.028;38.968;2023-03-14T16:06:01;21.05;;;6.05;;
49384;SDS011;36795;45.028;38.968;2023-03-14T16:08:47;21.27;;;5.43;;
49384;SDS011;36795;45.028;38.968;2023-03-14T16:11:34;22.35;;;5.18;;
49384;SDS011;36795;45.028;38.968;2023-03-14T16:14:21;17.05;;;4.70;;
49384;SDS011;36795;45.028;38.968;2023-03-14T16:17:08;21.52;;;5.22;;
49384;SDS011;36795;45.028;38.968;2023-03-14T16:19:58;18.35;;;4.75;;
49384;SDS011;36795;45.028;38.968;2023-03-14T16:22:44;15.25;;;4.70;;
49384;SDS011;36795;45.028;38.968;2023-03-14T16:25:30;14.98;;;4.57;;
49384;SDS011;36795;45.028;38.968;2023-03-14T16:28:17;16.77;;;4.72;;
49384;SDS011;36795;45.028;38.968;2023-03-14T16:31:04;19.17;;;5.22;;
49384;SDS011;36795;45.028;38.968;2023-03-14T16:33:51;27.77;;;5.20;;
49384;SDS011;36795;45.028;38.968;2023-03-14T16:36:47;17.08;;;4.55;;
49384;SDS011;36795;45.028;38.968;2023-03-14T16:39:36;19.25;;;5.68;;
49384;SDS011;36795;45.028;38.968;2023-03-14T16:42:23;18.75;;;5.03;;
49384;SDS011;36795;45.028;38.968;2023-03-14T16:45:17;17.95;;;5.05;;
49384;SDS011;36795;45.028;38.968;2023-03-14T16:48:03;15.70;;;4.07;;
49384;SDS011;36795;45.028;38.968;2023-03-14T16:50:49;17.52;;;4.70;;
49384;SDS011;36795;45.028;38.968;2023-03-14T16:53:36;16.70;;;4.35;;
49384;SDS011;36795;45.028;38.968;2023-03-14T16:56:22;20.23;;;4.85;;
49384;SDS011;36795;45.028;38.968;2023-03-14T16:59:09;14.30;;;3.87;;
49384;SDS011;36795;45.028;38.968;2023-03-14T17:01:56;19.20;;;4.60;;
49384;SDS011;36795;45.028;38.968;2023-03-14T17:04:42;15.70;;;4.35;;
49384;SDS011;36795;45.028;38.968;2023-03-14T17:07:29;18.62;;;5.05;;